Time;durP1;ratioP1;P1;durP2;ratioP2;P2;SDS_P1;SDS_P2;PMS_P1;PMS_P2;Temp;Humidity;BMP_temperature;BMP_pressure;BME280_temperature;BME280_humidity;BME280_pressure;Samples;Min_cycle;Max_cycle;Signal;HPM_P1;HPM_P2
2021/12/11 00:02:17;;;;;;;2.38;1.15;;;;;;;;;;5020318;28;20045;-67
2021/12/11 00:04:47;;;;;;;2.38;1.20;;;;;;;;;;5015532;28;20061;-70
2021/12/11 00:07:16;;;;;;;3.42;1.00;;;;;;;;;;5016779;28;20052;-70
2021/12/11 00:09:52;;;;;;;2.47;1.27;;;;;;;;;;5017327;28;20047;-74
2021/12/11 00:12:32;;;;;;;3.25;1.23;;;;;;;;;;5021293;28;20037;-72
2021/12/11 00:15:30;;;;;;;1.80;1.30;;;;;;;;;;5003454;28;20393;-67
2021/12/11 00:18:04;;;;;;;2.65;1.20;;;;;;;;;;5020691;28;20683;-74
2021/12/11 00:20:33;;;;;;;3.75;1.20;;;;;;;;;;5023203;28;20045;-71
2021/12/11 00:23:02;;;;;;;2.80;1.25;;;;;;;;;;5022584;28;20053;-68
2021/12/11 00:25:29;;;;;;;2.33;1.10;;;;;;;;;;5023225;28;20051;-66
2021/12/11 00:28:07;;;;;;;3.25;1.23;;;;;;;;;;5002195;28;20045;-67
2021/12/11 00:30:38;;;;;;;2.65;1.20;;;;;;;;;;5025706;28;20053;-67
2021/12/11 00:33:10;;;;;;;1.63;1.10;;;;;;;;;;5026133;28;20933;-63
2021/12/11 00:35:38;;;;;;;2.17;1.05;;;;;;;;;;5021563;28;20188;-66
2021/12/11 00:38:11;;;;;;;4.18;1.45;;;;;;;;;;5019260;28;20052;-68
2021/12/11 00:40:40;;;;;;;3.85;1.20;;;;;;;;;;5004988;28;20859;-72
2021/12/11 00:43:11;;;;;;;2.90;1.20;;;;;;;;;;5020269;28;20195;-73
2021/12/11 00:45:39;;;;;;;1.55;1.15;;;;;;;;;;5005008;28;20053;-75
2021/12/11 00:48:12;;;;;;;1.88;1.08;;;;;;;;;;5019828;28;20053;-74
2021/12/11 00:51:04;;;;;;;3.83;1.42;;;;;;;;;;5023282;28;20102;-72
2021/12/11 00:53:37;;;;;;;1.40;1.13;;;;;;;;;;5020889;28;21285;-70
2021/12/11 00:56:12;;;;;;;2.03;1.20;;;;;;;;;;5004321;28;20138;-69
2021/12/11 00:58:40;;;;;;;3.05;1.10;;;;;;;;;;5017315;28;20080;-67
2021/12/11 01:01:06;;;;;;;1.50;1.00;;;;;;;;;;5021070;28;20061;-72
2021/12/11 01:03:43;;;;;;;2.90;1.10;;;;;;;;;;5020577;28;20057;-73
2021/12/11 01:06:16;;;;;;;3.58;1.00;;;;;;;;;;5022673;28;20057;-74
2021/12/11 01:08:55;;;;;;;1.63;1.00;;;;;;;;;;5022880;28;20045;-71
2021/12/11 01:11:40;;;;;;;2.53;1.00;;;;;;;;;;5026422;28;20107;-69
2021/12/11 01:14:40;;;;;;;5.93;1.00;;;;;;;;;;5022894;28;20049;-67
2021/12/11 01:17:58;;;;;;;3.38;1.52;;;;;;;;;;5018203;28;20132;-68
2021/12/11 01:20:56;;;;;;;5.60;1.10;;;;;;;;;;5022326;28;20061;-66
2021/12/11 01:25:57;;;;;;;3.97;1.35;;;;;;;;;;5021391;28;20052;-67
2021/12/11 01:28:24;;;;;;;1.83;1.10;;;;;;;;;;5015028;28;20057;-66
2021/12/11 01:30:53;;;;;;;6.80;1.30;;;;;;;;;;5023460;28;20044;-76
2021/12/11 01:33:21;;;;;;;2.20;1.10;;;;;;;;;;5022519;28;20056;-62
2021/12/11 01:35:48;;;;;;;5.18;1.00;;;;;;;;;;5017607;28;20052;-72
2021/12/11 01:38:25;;;;;;;3.55;1.30;;;;;;;;;;5015837;28;20597;-72
2021/12/11 01:40:55;;;;;;;2.45;1.30;;;;;;;;;;5019238;28;20056;-66
2021/12/11 01:43:24;;;;;;;2.40;1.17;;;;;;;;;;5026693;28;20052;-71
2021/12/11 01:45:53;;;;;;;2.75;1.15;;;;;;;;;;5021247;28;20063;-69
2021/12/11 01:48:25;;;;;;;2.35;1.08;;;;;;;;;;5018962;28;20348;-72
2021/12/11 01:50:58;;;;;;;3.00;1.15;;;;;;;;;;5024648;28;20586;-66
2021/12/11 01:53:29;;;;;;;4.60;1.23;;;;;;;;;;5023641;28;20048;-69
2021/12/11 01:56:02;;;;;;;3.58;1.05;;;;;;;;;;5019834;28;20064;-70
2021/12/11 01:58:42;;;;;;;3.03;1.20;;;;;;;;;;5022987;28;20610;-70
2021/12/11 02:01:18;;;;;;;3.78;1.45;;;;;;;;;;5021843;28;20057;-76
2021/12/11 02:03:48;;;;;;;2.55;1.30;;;;;;;;;;5023001;28;20052;-75
2021/12/11 02:06:14;;;;;;;4.40;1.10;;;;;;;;;;5021837;28;20072;-71
2021/12/11 02:08:42;;;;;;;3.63;1.10;;;;;;;;;;5015660;28;20450;-69
2021/12/11 02:11:22;;;;;;;2.67;1.38;;;;;;;;;;5013705;28;20057;-75
2021/12/11 02:13:55;;;;;;;2.97;1.10;;;;;;;;;;5020583;28;20955;-71
2021/12/11 02:16:27;;;;;;;3.75;1.10;;;;;;;;;;5022352;28;20049;-63
2021/12/11 02:19:05;;;;;;;2.55;1.10;;;;;;;;;;5023344;28;20063;-64
2021/12/11 02:21:36;;;;;;;3.38;1.30;;;;;;;;;;5020436;28;20059;-69
2021/12/11 02:24:07;;;;;;;3.42;1.17;;;;;;;;;;5023356;28;20428;-62
2021/12/11 02:26:36;;;;;;;2.72;1.27;;;;;;;;;;4999888;28;20063;-66
2021/12/11 02:29:22;;;;;;;4.57;1.33;;;;;;;;;;5016322;28;21126;-63
2021/12/11 02:31:52;;;;;;;2.97;1.20;;;;;;;;;;5022811;28;20132;-69
2021/12/11 02:34:52;;;;;;;2.58;1.30;;;;;;;;;;5019541;28;20041;-73
2021/12/11 02:37:36;;;;;;;2.67;1.30;;;;;;;;;;5013946;28;20045;-73
2021/12/11 02:40:19;;;;;;;4.80;1.10;;;;;;;;;;5023211;28;20399;-67
2021/12/11 02:42:59;;;;;;;3.80;1.17;;;;;;;;;;5022551;28;20049;-72
2021/12/11 02:45:33;;;;;;;4.07;1.08;;;;;;;;;;5020265;28;20443;-67
2021/12/11 02:48:06;;;;;;;2.13;1.20;;;;;;;;;;5017554;28;20431;-69
2021/12/11 02:50:53;;;;;;;4.45;1.42;;;;;;;;;;5006160;28;20302;-69
2021/12/11 02:53:36;;;;;;;6.20;1.67;;;;;;;;;;5020938;28;20052;-69
2021/12/11 02:56:23;;;;;;;3.42;1.13;;;;;;;;;;5017483;28;20053;-64
2021/12/11 02:58:56;;;;;;;2.55;1.33;;;;;;;;;;5018810;28;20057;-68
2021/12/11 03:01:42;;;;;;;4.20;1.13;;;;;;;;;;5021309;28;20440;-67
2021/12/11 03:04:22;;;;;;;4.22;1.10;;;;;;;;;;5026348;28;20061;-72
2021/12/11 03:06:50;;;;;;;3.20;1.52;;;;;;;;;;5003724;28;20083;-71
2021/12/11 03:09:21;;;;;;;4.28;1.58;;;;;;;;;;5022105;28;20499;-73
2021/12/11 03:11:48;;;;;;;3.47;1.48;;;;;;;;;;5022347;28;20098;-72
2021/12/11 03:14:18;;;;;;;4.10;1.10;;;;;;;;;;5023803;28;20053;-73
2021/12/11 03:16:45;;;;;;;2.85;1.10;;;;;;;;;;5018566;28;20504;-76
2021/12/11 03:19:15;;;;;;;3.05;1.20;;;;;;;;;;5006531;28;20052;-73
2021/12/11 03:21:42;;;;;;;2.67;1.17;;;;;;;;;;5021485;28;20045;-72
2021/12/11 03:24:09;;;;;;;4.05;1.35;;;;;;;;;;5020734;28;20157;-71
2021/12/11 03:26:38;;;;;;;4.65;1.60;;;;;;;;;;5016811;28;20052;-72
2021/12/11 03:29:07;;;;;;;6.32;1.42;;;;;;;;;;5021598;28;20045;-64
2021/12/11 03:31:36;;;;;;;5.18;1.30;;;;;;;;;;5005206;28;20044;-70
2021/12/11 03:34:08;;;;;;;3.08;1.60;;;;;;;;;;5023073;28;20057;-73
2021/12/11 03:36:35;;;;;;;3.47;1.38;;;;;;;;;;5017310;28;20590;-71
2021/12/11 03:39:12;;;;;;;3.80;1.40;;;;;;;;;;5018369;28;20991;-71
2021/12/11 03:41:41;;;;;;;6.50;1.63;;;;;;;;;;5020688;28;20056;-72
2021/12/11 03:44:09;;;;;;;3.15;1.35;;;;;;;;;;5021491;28;20057;-73
2021/12/11 03:46:36;;;;;;;4.47;1.83;;;;;;;;;;5018873;28;20048;-66
2021/12/11 03:49:11;;;;;;;3.03;1.50;;;;;;;;;;5019060;28;20072;-66
2021/12/11 03:51:39;;;;;;;;;;;;;;;;;;5020275;28;20256;-69
2021/12/11 03:54:08;;;;;;;5.10;1.50;;;;;;;;;;5020776;28;20721;-74
2021/12/11 03:56:37;;;;;;;3.70;1.40;;;;;;;;;;5015468;28;20828;-68
2021/12/11 03:59:09;;;;;;;3.20;1.42;;;;;;;;;;5018306;28;20057;-64
2021/12/11 04:01:43;;;;;;;3.28;1.58;;;;;;;;;;5018813;28;20653;-68
2021/12/11 04:04:16;;;;;;;4.78;1.30;;;;;;;;;;5026854;28;20764;-73
2021/12/11 04:06:43;;;;;;;7.10;1.70;;;;;;;;;;5020722;28;20061;-73
2021/12/11 04:09:12;;;;;;;6.88;1.40;;;;;;;;;;5019041;28;21001;-72
2021/12/11 04:11:39;;;;;;;5.30;1.50;;;;;;;;;;5019186;28;20089;-72
2021/12/11 04:14:14;;;;;;;2.80;1.20;;;;;;;;;;5018377;28;20052;-62
2021/12/11 04:16:41;;;;;;;5.95;1.52;;;;;;;;;;5017319;28;20049;-70
2021/12/11 04:19:08;;;;;;;3.67;1.35;;;;;;;;;;5020682;28;20045;-69
2021/12/11 04:21:36;;;;;;;6.13;1.40;;;;;;;;;;5019170;28;20403;-65
2021/12/11 04:24:06;;;;;;;5.38;1.60;;;;;;;;;;5020276;28;20052;-65
2021/12/11 04:26:33;;;;;;;3.90;1.40;;;;;;;;;;5016897;28;20056;-74
2021/12/11 04:29:01;;;;;;;5.40;1.20;;;;;;;;;;5018473;28;20052;-64
2021/12/11 04:31:30;;;;;;;4.15;1.40;;;;;;;;;;5018397;28;20045;-61
2021/12/11 04:33:58;;;;;;;3.90;1.20;;;;;;;;;;5016123;28;20057;-73
2021/12/11 04:36:39;;;;;;;4.72;1.40;;;;;;;;;;5016151;28;20110;-72
2021/12/11 04:39:08;;;;;;;4.50;1.17;;;;;;;;;;5019183;28;20557;-62
2021/12/11 04:41:48;;;;;;;6.95;1.70;;;;;;;;;;5001901;28;20148;-72
2021/12/11 04:44:32;;;;;;;4.85;1.45;;;;;;;;;;5021321;28;20056;-69
2021/12/11 04:46:58;;;;;;;6.45;1.70;;;;;;;;;;5019925;28;20829;-72
2021/12/11 04:49:38;;;;;;;4.72;1.27;;;;;;;;;;5004510;28;20663;-63
2021/12/11 04:52:18;;;;;;;3.45;1.35;;;;;;;;;;5021575;28;20551;-66
2021/12/11 05:01:26;;;;;;;5.72;1.40;;;;;;;;;;5019149;28;20059;-68
2021/12/11 05:03:45;;;;;;;6.38;1.40;;;;;;;;;;5018154;28;20064;-72
2021/12/11 05:12:08;;;;;;;3.97;1.13;;;;;;;;;;5020102;28;20049;-65
2021/12/11 05:14:27;;;;;;;4.82;1.38;;;;;;;;;;5026697;28;20040;-72
2021/12/11 05:16:56;;;;;;;6.20;1.20;;;;;;;;;;5021610;28;20460;-73
2021/12/11 05:19:22;;;;;;;4.72;1.40;;;;;;;;;;5025649;28;20518;-68
2021/12/11 05:21:48;;;;;;;6.68;1.20;;;;;;;;;;5022948;28;20087;-66
2021/12/11 05:24:17;;;;;;;4.30;1.40;;;;;;;;;;5020334;28;20391;-71
2021/12/11 05:26:44;;;;;;;3.53;1.20;;;;;;;;;;5001493;28;20565;-72
2021/12/11 05:29:11;;;;;;;4.13;1.20;;;;;;;;;;5020060;28;20538;-69
2021/12/11 05:31:37;;;;;;;4.57;1.38;;;;;;;;;;5018948;28;20482;-65
2021/12/11 05:34:05;;;;;;;7.20;1.60;;;;;;;;;;5021726;28;20061;-64
2021/12/11 05:36:32;;;;;;;6.50;1.50;;;;;;;;;;5020078;28;20084;-69
2021/12/11 05:39:01;;;;;;;3.67;1.17;;;;;;;;;;5019582;28;20060;-65
2021/12/11 05:41:27;;;;;;;6.57;1.58;;;;;;;;;;5020112;28;20773;-70
2021/12/11 05:43:54;;;;;;;5.63;1.75;;;;;;;;;;5015621;28;20057;-63
2021/12/11 05:46:20;;;;;;;6.35;1.17;;;;;;;;;;5020805;28;20048;-67
2021/12/11 05:48:50;;;;;;;5.28;1.30;;;;;;;;;;5019196;28;20057;-73
2021/12/11 05:51:21;;;;;;;7.07;1.58;;;;;;;;;;5019348;28;20057;-73
2021/12/11 05:53:53;;;;;;;3.83;0.95;;;;;;;;;;5020611;28;20057;-68
2021/12/11 05:56:20;;;;;;;6.75;1.50;;;;;;;;;;5006225;28;20053;-71
2021/12/11 06:01:37;;;;;;;7.15;1.90;;;;;;;;;;5021155;28;20060;-71
2021/12/11 06:04:10;;;;;;;7.40;1.60;;;;;;;;;;5021339;28;20171;-65
2021/12/11 06:06:38;;;;;;;3.63;1.30;;;;;;;;;;5021237;28;20088;-70
2021/12/11 06:09:07;;;;;;;5.78;1.52;;;;;;;;;;5021852;28;20053;-71
2021/12/11 06:11:34;;;;;;;7.57;1.60;;;;;;;;;;5002006;28;20084;-68
2021/12/11 06:14:00;;;;;;;4.50;1.40;;;;;;;;;;5022321;28;20465;-62
2021/12/11 06:16:27;;;;;;;5.05;1.30;;;;;;;;;;5017560;28;20051;-75
2021/12/11 06:18:53;;;;;;;5.78;1.50;;;;;;;;;;5018248;28;20056;-67
2021/12/11 06:21:20;;;;;;;6.80;1.50;;;;;;;;;;5020009;28;20135;-69
2021/12/11 06:23:46;;;;;;;4.90;1.52;;;;;;;;;;5021516;28;20168;-69
2021/12/11 06:26:13;;;;;;;7.60;1.55;;;;;;;;;;5019052;28;20126;-71
2021/12/11 06:28:39;;;;;;;4.95;1.42;;;;;;;;;;5019112;28;20061;-72
2021/12/11 06:31:06;;;;;;;4.75;1.52;;;;;;;;;;5023482;28;20506;-69
2021/12/11 06:33:34;;;;;;;7.10;1.38;;;;;;;;;;5022799;28;20088;-69
2021/12/11 06:36:07;;;;;;;3.67;1.30;;;;;;;;;;5005462;28;20068;-64
2021/12/11 06:38:35;;;;;;;5.70;1.40;;;;;;;;;;5015660;28;20504;-70
2021/12/11 06:41:04;;;;;;;3.95;1.35;;;;;;;;;;5000228;28;20089;-71
2021/12/11 06:43:31;;;;;;;4.63;1.60;;;;;;;;;;5020222;28;20103;-70
2021/12/11 06:45:58;;;;;;;6.70;1.67;;;;;;;;;;5019929;28;21433;-67
2021/12/11 06:48:25;;;;;;;6.63;1.67;;;;;;;;;;5010179;28;20060;-62
2021/12/11 06:50:53;;;;;;;9.50;1.85;;;;;;;;;;5014296;28;20092;-66
2021/12/11 06:53:28;;;;;;;7.25;1.83;;;;;;;;;;5020504;28;20049;-73
2021/12/11 06:55:55;;;;;;;9.10;1.65;;;;;;;;;;5021706;28;20110;-65
2021/12/11 06:58:22;;;;;;;3.53;1.40;;;;;;;;;;5020233;28;21291;-66
2021/12/11 07:00:49;;;;;;;6.95;1.85;;;;;;;;;;5018763;28;20057;-68
2021/12/11 07:03:15;;;;;;;4.97;1.30;;;;;;;;;;5022143;28;20127;-72
2021/12/11 07:05:41;;;;;;;8.32;1.67;;;;;;;;;;5000337;28;20095;-68
2021/12/11 07:08:12;;;;;;;10.65;2.20;;;;;;;;;;5020275;28;20604;-67
2021/12/11 07:10:40;;;;;;;7.63;2.08;;;;;;;;;;5019906;28;20222;-69
2021/12/11 07:13:07;;;;;;;6.00;2.00;;;;;;;;;;5024188;28;20064;-70
2021/12/11 07:15:34;;;;;;;5.47;1.55;;;;;;;;;;5022714;28;20730;-70
2021/12/11 07:18:00;;;;;;;8.90;1.70;;;;;;;;;;5013769;28;20073;-69
2021/12/11 07:20:27;;;;;;;4.65;1.30;;;;;;;;;;5051931;28;20767;-77
2021/12/11 07:22:54;;;;;;;4.97;1.58;;;;;;;;;;5024105;28;20491;-66
2021/12/11 07:25:25;;;;;;;10.10;2.30;;;;;;;;;;5018487;28;20049;-72
2021/12/11 07:27:53;;;;;;;7.57;1.65;;;;;;;;;;5018528;28;20064;-64
2021/12/11 07:30:20;;;;;;;9.75;2.38;;;;;;;;;;5021059;28;20966;-70
2021/12/11 07:32:47;;;;;;;7.72;2.10;;;;;;;;;;5020199;28;20446;-73
2021/12/11 07:35:13;;;;;;;7.30;1.90;;;;;;;;;;5004606;28;20173;-71
2021/12/11 07:37:39;;;;;;;14.95;1.98;;;;;;;;;;5019120;28;20056;-67
2021/12/11 07:40:08;;;;;;;7.25;1.70;;;;;;;;;;5021122;28;20692;-71
2021/12/11 07:42:36;;;;;;;7.10;1.75;;;;;;;;;;5021640;28;20687;-63
2021/12/11 07:45:03;;;;;;;6.97;1.83;;;;;;;;;;5004742;28;20056;-67
2021/12/11 07:47:31;;;;;;;10.93;1.80;;;;;;;;;;5020515;28;20471;-73
2021/12/11 07:49:57;;;;;;;10.52;1.88;;;;;;;;;;5021893;28;20088;-69
2021/12/11 07:52:24;;;;;;;9.02;1.95;;;;;;;;;;5005303;28;20041;-72
2021/12/11 07:54:50;;;;;;;9.13;2.03;;;;;;;;;;5020974;28;20436;-72
2021/12/11 07:57:16;;;;;;;5.53;1.90;;;;;;;;;;4999629;28;20507;-68
2021/12/11 07:59:43;;;;;;;12.70;2.78;;;;;;;;;;5022309;28;20052;-77
2021/12/11 08:02:09;;;;;;;6.10;2.03;;;;;;;;;;5024045;28;20080;-74
2021/12/11 08:04:35;;;;;;;5.07;1.70;;;;;;;;;;5024036;28;20051;-68
2021/12/11 08:07:03;;;;;;;7.22;2.13;;;;;;;;;;5021677;28;20049;-69
2021/12/11 08:09:29;;;;;;;7.45;2.00;;;;;;;;;;5004110;28;20063;-75
2021/12/11 08:11:56;;;;;;;8.05;2.40;;;;;;;;;;5021440;28;20055;-71
2021/12/11 08:14:23;;;;;;;6.55;1.83;;;;;;;;;;5017385;28;20175;-70
2021/12/11 08:16:53;;;;;;;7.95;1.90;;;;;;;;;;5016313;28;20170;-75
2021/12/11 08:19:23;;;;;;;5.35;1.88;;;;;;;;;;5002228;28;20053;-70
2021/12/11 08:21:54;;;;;;;11.18;1.85;;;;;;;;;;5020402;28;20423;-65
2021/12/11 08:24:23;;;;;;;4.57;2.30;;;;;;;;;;5017663;28;20508;-72
2021/12/11 08:26:52;;;;;;;5.57;2.28;;;;;;;;;;5017189;28;20570;-73
2021/12/11 08:29:19;;;;;;;9.07;2.17;;;;;;;;;;5016889;28;20049;-75
2021/12/11 08:31:49;;;;;;;8.63;2.22;;;;;;;;;;5021370;28;20049;-72
2021/12/11 08:34:16;;;;;;;8.00;2.15;;;;;;;;;;5021976;28;20412;-70
2021/12/11 08:36:43;;;;;;;8.05;2.28;;;;;;;;;;5017159;28;20504;-76
2021/12/11 08:39:12;;;;;;;9.30;3.08;;;;;;;;;;5021669;28;20059;-73
2021/12/11 08:41:40;;;;;;;12.90;3.45;;;;;;;;;;5019109;28;20098;-73
2021/12/11 08:44:12;;;;;;;11.90;3.70;;;;;;;;;;5017859;28;20248;-73
2021/12/11 08:46:43;;;;;;;10.52;2.90;;;;;;;;;;5004430;28;20056;-70
2021/12/11 08:49:18;;;;;;;7.10;2.40;;;;;;;;;;5024306;28;20069;-76
2021/12/11 08:51:50;;;;;;;7.80;2.53;;;;;;;;;;5022516;28;20053;-75
2021/12/11 08:54:18;;;;;;;5.60;1.80;;;;;;;;;;5024927;28;20061;-71
2021/12/11 08:56:46;;;;;;;6.80;2.15;;;;;;;;;;5024574;28;20424;-70
2021/12/11 08:59:16;;;;;;;7.05;2.13;;;;;;;;;;5027866;28;20083;-75
2021/12/11 09:01:53;;;;;;;10.82;2.33;;;;;;;;;;5026258;28;21022;-74
2021/12/11 09:04:49;;;;;;;8.10;1.73;;;;;;;;;;5023227;28;20416;-71
2021/12/11 09:07:28;;;;;;;6.15;2.05;;;;;;;;;;5004189;28;20057;-71
2021/12/11 09:10:02;;;;;;;6.63;1.88;;;;;;;;;;5020892;28;20048;-70
2021/12/11 09:12:34;;;;;;;7.57;1.90;;;;;;;;;;5006379;28;20575;-69
2021/12/11 09:15:31;;;;;;;7.32;1.98;;;;;;;;;;5020457;28;20064;-66
2021/12/11 09:18:04;;;;;;;8.65;1.92;;;;;;;;;;5015061;28;20503;-69
2021/12/11 09:20:40;;;;;;;6.43;2.08;;;;;;;;;;5021252;28;20071;-69
2021/12/11 09:23:26;;;;;;;5.07;1.55;;;;;;;;;;5023771;28;20048;-74
2021/12/11 09:25:57;;;;;;;9.02;1.92;;;;;;;;;;5020896;28;20717;-68
2021/12/11 09:28:33;;;;;;;7.63;2.08;;;;;;;;;;4999786;28;20051;-72
2021/12/11 09:31:21;;;;;;;7.10;2.05;;;;;;;;;;5022715;28;20060;-69
2021/12/11 09:34:08;;;;;;;5.15;1.90;;;;;;;;;;5004628;28;20064;-75
2021/12/11 09:36:43;;;;;;;7.40;1.80;;;;;;;;;;5016578;28;20692;-69
2021/12/11 09:39:22;;;;;;;7.07;1.95;;;;;;;;;;5001860;28;20064;-76
2021/12/11 09:41:48;;;;;;;11.68;2.50;;;;;;;;;;5019948;28;20068;-67
2021/12/11 09:44:33;;;;;;;7.03;2.13;;;;;;;;;;5018167;28;20055;-73
2021/12/11 09:47:06;;;;;;;10.70;2.33;;;;;;;;;;5011019;28;20072;-70
2021/12/11 09:49:37;;;;;;;8.32;1.70;;;;;;;;;;5017802;28;20067;-68
2021/12/11 09:52:15;;;;;;;8.98;2.42;;;;;;;;;;5022056;28;20057;-64
2021/12/11 09:54:45;;;;;;;5.32;1.92;;;;;;;;;;5020415;28;20057;-72
2021/12/11 09:57:15;;;;;;;12.00;2.70;;;;;;;;;;5017110;28;20049;-74
2021/12/11 09:59:44;;;;;;;6.90;1.92;;;;;;;;;;5016635;28;20040;-71
2021/12/11 10:02:20;;;;;;;6.38;2.00;;;;;;;;;;5018135;28;20138;-73
2021/12/11 10:04:58;;;;;;;10.75;1.95;;;;;;;;;;5018292;28;20053;-72
2021/12/11 10:07:31;;;;;;;5.53;1.60;;;;;;;;;;5015135;28;20044;-72
2021/12/11 10:10:21;;;;;;;6.75;2.10;;;;;;;;;;5019497;28;20082;-69
2021/12/11 10:12:56;;;;;;;9.38;2.40;;;;;;;;;;5021098;28;20064;-72
2021/12/11 10:15:38;;;;;;;6.20;1.92;;;;;;;;;;5020173;28;20073;-67
2021/12/11 10:18:09;;;;;;;5.18;1.90;;;;;;;;;;5016275;28;20156;-71
2021/12/11 10:20:44;;;;;;;9.48;2.00;;;;;;;;;;5016317;28;20057;-68
2021/12/11 10:23:15;;;;;;;9.63;2.17;;;;;;;;;;5024985;28;20065;-70
2021/12/11 10:25:46;;;;;;;7.60;1.88;;;;;;;;;;5020784;28;20091;-70
2021/12/11 10:28:18;;;;;;;3.75;1.40;;;;;;;;;;5019050;28;20045;-68
2021/12/11 10:30:54;;;;;;;6.97;1.98;;;;;;;;;;5003001;28;20779;-74
2021/12/11 10:33:22;;;;;;;6.82;1.77;;;;;;;;;;5022900;28;20056;-75
2021/12/11 10:35:52;;;;;;;5.47;1.58;;;;;;;;;;5014285;28;20072;-77
2021/12/11 10:38:19;;;;;;;6.03;1.50;;;;;;;;;;5000020;28;20476;-74
2021/12/11 10:40:50;;;;;;;11.98;2.35;;;;;;;;;;5021064;28;20199;-71
2021/12/11 10:43:23;;;;;;;3.72;1.52;;;;;;;;;;5019910;28;20507;-71
2021/12/11 10:45:50;;;;;;;3.70;1.60;;;;;;;;;;5018061;28;20776;-70
2021/12/11 10:48:24;;;;;;;5.53;1.77;;;;;;;;;;5016267;28;20057;-73
2021/12/11 10:50:57;;;;;;;2.97;1.30;;;;;;;;;;5021978;28;20061;-73
2021/12/11 10:53:27;;;;;;;5.03;1.13;;;;;;;;;;5020960;28;20056;-70
2021/12/11 10:55:56;;;;;;;5.95;1.50;;;;;;;;;;5013409;28;20049;-73
2021/12/11 10:58:28;;;;;;;3.50;1.20;;;;;;;;;;5014246;28;20675;-75
2021/12/11 11:01:07;;;;;;;4.47;1.33;;;;;;;;;;5020092;28;20568;-72
2021/12/11 11:03:36;;;;;;;3.63;1.10;;;;;;;;;;5018319;28;20490;-70
2021/12/11 11:06:04;;;;;;;1.75;0.85;;;;;;;;;;5001716;28;20616;-74
2021/12/11 11:08:33;;;;;;;2.45;1.13;;;;;;;;;;5015128;28;20502;-69
2021/12/11 11:11:06;;;;;;;8.02;1.23;;;;;;;;;;5018792;28;20807;-69
2021/12/11 11:13:33;;;;;;;5.57;1.20;;;;;;;;;;5017632;28;20059;-77
2021/12/11 11:15:59;;;;;;;4.47;1.80;;;;;;;;;;5018696;28;20118;-69
2021/12/11 11:18:27;;;;;;;5.40;2.58;;;;;;;;;;5015335;28;20571;-68
2021/12/11 11:21:02;;;;;;;6.53;1.40;;;;;;;;;;5019072;28;20064;-70
2021/12/11 11:23:28;;;;;;;;;;;;;;;;;;5016580;28;20300;-68
2021/12/11 11:25:59;;;;;;;2.90;1.10;;;;;;;;;;5016950;28;19928;-72
2021/12/11 11:28:30;;;;;;;5.47;1.30;;;;;;;;;;5018534;28;20368;-68
2021/12/11 11:30:59;;;;;;;8.43;1.27;;;;;;;;;;5017946;28;20194;-77
2021/12/11 11:33:28;;;;;;;4.55;2.05;;;;;;;;;;5017488;28;20107;-79
2021/12/11 11:35:56;;;;;;;3.38;1.70;;;;;;;;;;5016379;28;20052;-72
2021/12/11 11:38:26;;;;;;;2.10;0.98;;;;;;;;;;5018023;28;20053;-72
2021/12/11 11:40:58;;;;;;;1.85;0.88;;;;;;;;;;5018616;28;20187;-71
2021/12/11 11:43:26;;;;;;;3.67;1.10;;;;;;;;;;5023993;28;20080;-75
2021/12/11 11:45:53;;;;;;;1.52;0.70;;;;;;;;;;5017979;28;20405;-71
2021/12/11 11:48:27;;;;;;;2.50;1.27;;;;;;;;;;5018070;28;20041;-75
2021/12/11 11:50:55;;;;;;;2.17;0.80;;;;;;;;;;5018982;28;20427;-72
2021/12/11 11:53:25;;;;;;;3.20;1.10;;;;;;;;;;5023535;28;20561;-76
2021/12/11 11:56:01;;;;;;;3.88;0.90;;;;;;;;;;5022169;28;20057;-76
2021/12/11 11:58:28;;;;;;;1.77;0.80;;;;;;;;;;5030209;28;20069;-78
2021/12/11 12:01:00;;;;;;;1.35;0.70;;;;;;;;;;5029232;28;21510;-76
2021/12/11 12:03:29;;;;;;;4.20;0.85;;;;;;;;;;5028560;28;20053;-75
2021/12/11 12:06:00;;;;;;;9.32;1.00;;;;;;;;;;5011054;28;21010;-69
2021/12/11 12:08:27;;;;;;;2.75;1.15;;;;;;;;;;5030339;28;20045;-80
2021/12/11 12:10:55;;;;;;;7.38;0.90;;;;;;;;;;5025901;28;20472;-73
2021/12/11 12:13:24;;;;;;;3.72;0.90;;;;;;;;;;5035620;28;20052;-75
2021/12/11 12:15:56;;;;;;;3.08;1.35;;;;;;;;;;5032595;28;20143;-79
2021/12/11 12:18:26;;;;;;;1.55;0.80;;;;;;;;;;5033266;28;20119;-80
2021/12/11 12:20:53;;;;;;;3.75;1.08;;;;;;;;;;5015836;28;20482;-76
2021/12/11 12:23:20;;;;;;;2.88;1.02;;;;;;;;;;5032274;28;20075;-77
2021/12/11 12:25:51;;;;;;;2.15;0.90;;;;;;;;;;5026719;28;20049;-74
2021/12/11 12:28:19;;;;;;;1.80;0.93;;;;;;;;;;5034231;28;20300;-78
2021/12/11 12:30:54;;;;;;;2.20;0.90;;;;;;;;;;5038355;28;20135;-77
2021/12/11 12:33:20;;;;;;;3.70;1.00;;;;;;;;;;5032385;28;20597;-75
2021/12/11 12:35:47;;;;;;;3.72;1.25;;;;;;;;;;5030355;28;20079;-78
2021/12/11 12:38:16;;;;;;;2.50;0.90;;;;;;;;;;5039840;28;20056;-79
2021/12/11 12:40:59;;;;;;;5.03;1.00;;;;;;;;;;5039696;28;20111;-80
2021/12/11 12:43:54;;;;;;;9.68;1.42;;;;;;;;;;5031114;28;20045;-78
2021/12/11 12:46:32;;;;;;;3.63;1.17;;;;;;;;;;5036279;28;20110;-78
2021/12/11 12:49:00;;;;;;;5.13;0.88;;;;;;;;;;5034973;28;20533;-76
2021/12/11 12:51:30;;;;;;;2.25;0.85;;;;;;;;;;5030272;28;20128;-75
2021/12/11 12:54:00;;;;;;;5.82;0.80;;;;;;;;;;5033930;28;20111;-71
2021/12/11 12:56:33;;;;;;;4.00;1.48;;;;;;;;;;5030353;28;20052;-78
2021/12/11 12:59:24;;;;;;;3.97;1.35;;;;;;;;;;5008787;28;20059;-73
2021/12/11 13:01:58;;;;;;;3.60;1.52;;;;;;;;;;5007517;28;20057;-79
2021/12/11 13:04:29;;;;;;;3.13;1.27;;;;;;;;;;5042861;28;20045;-72
2021/12/11 13:07:01;;;;;;;4.78;1.30;;;;;;;;;;5052808;28;20091;-72
2021/12/11 13:09:55;;;;;;;3.30;1.10;;;;;;;;;;5050808;28;20063;-75
2021/12/11 13:12:26;;;;;;;2.80;0.98;;;;;;;;;;5049758;28;20056;-76
2021/12/11 13:14:56;;;;;;;2.20;1.00;;;;;;;;;;5044957;28;20466;-74
2021/12/11 13:17:32;;;;;;;3.50;1.10;;;;;;;;;;5041145;28;20075;-75
2021/12/11 13:20:06;;;;;;;4.93;1.00;;;;;;;;;;5043094;28;20053;-73
2021/12/11 13:22:39;;;;;;;1.40;0.88;;;;;;;;;;5053813;28;20059;-72
2021/12/11 13:25:31;;;;;;;1.83;1.05;;;;;;;;;;5054548;28;20060;-71
2021/12/11 13:28:00;;;;;;;2.95;1.48;;;;;;;;;;5054800;28;20121;-73
2021/12/11 13:30:55;;;;;;;2.83;1.23;;;;;;;;;;5057560;28;20056;-76
2021/12/11 13:33:24;;;;;;;2.38;1.20;;;;;;;;;;5032357;28;20048;-72
2021/12/11 13:35:53;;;;;;;1.85;1.20;;;;;;;;;;5049602;28;20053;-73
2021/12/11 13:38:22;;;;;;;1.73;1.00;;;;;;;;;;5050220;28;20396;-72
2021/12/11 13:40:53;;;;;;;2.95;0.95;;;;;;;;;;5051370;28;20056;-74
2021/12/11 13:43:20;;;;;;;3.90;1.02;;;;;;;;;;5050217;28;20049;-74
2021/12/11 13:45:51;;;;;;;2.00;1.10;;;;;;;;;;5052469;28;20126;-73
2021/12/11 13:48:20;;;;;;;2.53;0.98;;;;;;;;;;5051685;28;20128;-73
2021/12/11 13:51:13;;;;;;;2.92;1.20;;;;;;;;;;5052386;28;20156;-72
2021/12/11 13:53:42;;;;;;;2.65;0.80;;;;;;;;;;5051323;28;20098;-73
2021/12/11 13:56:16;;;;;;;2.65;0.80;;;;;;;;;;5053046;28;20084;-75
2021/12/11 13:58:44;;;;;;;1.27;0.68;;;;;;;;;;5054913;28;20041;-76
2021/12/11 14:01:18;;;;;;;1.58;0.75;;;;;;;;;;5053820;28;20057;-72
2021/12/11 14:03:45;;;;;;;2.33;0.73;;;;;;;;;;5053685;28;20052;-74
2021/12/11 14:06:13;;;;;;;1.40;0.73;;;;;;;;;;5052586;28;20045;-73
2021/12/11 14:08:43;;;;;;;1.20;0.85;;;;;;;;;;5051388;28;20045;-77
2021/12/11 14:11:12;;;;;;;1.20;0.70;;;;;;;;;;5051889;28;20498;-73
2021/12/11 14:13:43;;;;;;;2.97;0.80;;;;;;;;;;5055038;28;20045;-71
2021/12/11 14:16:12;;;;;;;1.02;0.70;;;;;;;;;;5053717;28;20155;-71
2021/12/11 14:18:46;;;;;;;2.25;0.93;;;;;;;;;;5050866;28;20049;-77
2021/12/11 14:21:16;;;;;;;2.97;1.25;;;;;;;;;;5052302;28;20077;-72
2021/12/11 14:23:50;;;;;;;2.38;0.95;;;;;;;;;;5053906;28;20530;-72
2021/12/11 14:26:37;;;;;;;3.38;0.90;;;;;;;;;;5055420;28;20052;-73
2021/12/11 14:29:09;;;;;;;4.00;0.98;;;;;;;;;;5035204;28;20049;-71
2021/12/11 14:31:41;;;;;;;2.90;0.80;;;;;;;;;;5056066;28;20087;-74
2021/12/11 14:35:04;;;;;;;3.45;0.77;;;;;;;;;;5051007;28;20041;-70
2021/12/11 14:41:08;;;;;;;4.00;0.80;;;;;;;;;;5055231;28;20096;-74
2021/12/11 14:43:36;;;;;;;4.15;0.70;;;;;;;;;;5054759;28;20131;-72
2021/12/11 14:46:04;;;;;;;1.30;0.50;;;;;;;;;;5053033;28;20049;-79
2021/12/11 14:48:31;;;;;;;2.65;0.85;;;;;;;;;;5054804;28;20087;-72
2021/12/11 14:51:06;;;;;;;6.00;0.90;;;;;;;;;;5053928;28;20190;-73
2021/12/11 14:53:37;;;;;;;4.35;1.00;;;;;;;;;;5055307;28;20049;-74
2021/12/11 14:56:08;;;;;;;3.97;1.02;;;;;;;;;;5055976;28;20067;-73
2021/12/11 14:58:37;;;;;;;3.45;0.70;;;;;;;;;;5052119;28;20099;-72
2021/12/11 15:01:13;;;;;;;3.92;0.75;;;;;;;;;;5054035;28;20067;-74
2021/12/11 15:03:39;;;;;;;0.77;0.60;;;;;;;;;;5052953;28;20128;-71
2021/12/11 15:06:06;;;;;;;1.48;0.50;;;;;;;;;;5051229;28;20068;-71
2021/12/11 15:08:35;;;;;;;3.55;0.65;;;;;;;;;;5050734;28;20106;-72
2021/12/11 15:11:10;;;;;;;2.50;0.95;;;;;;;;;;5034405;28;20064;-72
2021/12/11 15:13:38;;;;;;;4.05;0.60;;;;;;;;;;5051345;28;20072;-77
2021/12/11 15:16:07;;;;;;;0.98;0.80;;;;;;;;;;5052226;28;20273;-78
2021/12/11 15:18:34;;;;;;;3.75;0.63;;;;;;;;;;5050158;28;20513;-70
2021/12/11 15:21:08;;;;;;;1.02;0.55;;;;;;;;;;5051897;28;20057;-71
2021/12/11 15:23:35;;;;;;;7.57;1.40;;;;;;;;;;5053138;28;20624;-72
2021/12/11 15:26:02;;;;;;;2.83;0.93;;;;;;;;;;5052856;28;20071;-72
2021/12/11 15:28:29;;;;;;;3.42;0.60;;;;;;;;;;5048095;28;20124;-74
2021/12/11 15:31:06;;;;;;;1.20;0.57;;;;;;;;;;5047603;28;20057;-71
2021/12/11 15:33:33;;;;;;;0.82;0.50;;;;;;;;;;5033214;28;20048;-72